sensor_id;sensor_type;location;lat;lon;timestamp;temperature;humidity
67529;DHT22;54366;51.980;5.856;2024-02-23T00:01:53;6.90;86.30
67529;DHT22;54366;51.980;5.856;2024-02-23T00:04:20;6.90;86.50
67529;DHT22;54366;51.980;5.856;2024-02-23T00:06:46;6.90;86.70
67529;DHT22;54366;51.980;5.856;2024-02-23T00:09:12;6.90;86.70
67529;DHT22;54366;51.980;5.856;2024-02-23T00:11:41;6.90;84.90
67529;DHT22;54366;51.980;5.856;2024-02-23T00:14:11;6.80;84.20
67529;DHT22;54366;51.980;5.856;2024-02-23T00:16:42;6.80;84.60
67529;DHT22;54366;51.980;5.856;2024-02-23T00:19:08;6.80;85.10
67529;DHT22;54366;51.980;5.856;2024-02-23T00:21:38;6.80;85.90
67529;DHT22;54366;51.980;5.856;2024-02-23T00:24:06;6.80;86.30
67529;DHT22;54366;51.980;5.856;2024-02-23T00:26:32;6.80;86.50
67529;DHT22;54366;51.980;5.856;2024-02-23T00:28:59;6.80;86.60
67529;DHT22;54366;51.980;5.856;2024-02-23T00:31:25;6.80;86.70
67529;DHT22;54366;51.980;5.856;2024-02-23T00:33:51;6.90;86.80
67529;DHT22;54366;51.980;5.856;2024-02-23T00:36:17;6.90;86.70
67529;DHT22;54366;51.980;5.856;2024-02-23T00:38:44;6.90;86.80
67529;DHT22;54366;51.980;5.856;2024-02-23T00:41:10;6.90;86.70
67529;DHT22;54366;51.980;5.856;2024-02-23T00:43:40;6.90;86.60
67529;DHT22;54366;51.980;5.856;2024-02-23T00:46:09;6.90;86.70
67529;DHT22;54366;51.980;5.856;2024-02-23T00:48:36;6.90;86.50
67529;DHT22;54366;51.980;5.856;2024-02-23T00:51:02;6.90;86.60
67529;DHT22;54366;51.980;5.856;2024-02-23T00:53:31;6.90;86.50
67529;DHT22;54366;51.980;5.856;2024-02-23T00:55:58;6.90;86.60
67529;DHT22;54366;51.980;5.856;2024-02-23T00:58:24;6.90;86.20
67529;DHT22;54366;51.980;5.856;2024-02-23T01:00:50;6.80;85.50
67529;DHT22;54366;51.980;5.856;2024-02-23T01:03:16;6.80;85.70
67529;DHT22;54366;51.980;5.856;2024-02-23T01:05:43;6.70;85.90
67529;DHT22;54366;51.980;5.856;2024-02-23T01:08:09;6.70;85.90
67529;DHT22;54366;51.980;5.856;2024-02-23T01:10:35;6.70;86.20
67529;DHT22;54366;51.980;5.856;2024-02-23T01:13:01;6.70;86.40
67529;DHT22;54366;51.980;5.856;2024-02-23T01:15:28;6.70;86.60
67529;DHT22;54366;51.980;5.856;2024-02-23T01:17:54;6.70;86.60
67529;DHT22;54366;51.980;5.856;2024-02-23T01:20:22;6.80;86.90
67529;DHT22;54366;51.980;5.856;2024-02-23T01:22:48;6.70;87.20
67529;DHT22;54366;51.980;5.856;2024-02-23T01:25:15;6.80;87.50
67529;DHT22;54366;51.980;5.856;2024-02-23T01:27:42;6.70;87.50
67529;DHT22;54366;51.980;5.856;2024-02-23T01:30:08;6.80;87.50
67529;DHT22;54366;51.980;5.856;2024-02-23T01:32:34;6.80;87.50
67529;DHT22;54366;51.980;5.856;2024-02-23T01:35:04;6.80;87.50
67529;DHT22;54366;51.980;5.856;2024-02-23T01:37:30;6.80;87.50
67529;DHT22;54366;51.980;5.856;2024-02-23T01:39:57;6.80;87.50
67529;DHT22;54366;51.980;5.856;2024-02-23T01:42:23;6.90;87.40
67529;DHT22;54366;51.980;5.856;2024-02-23T01:44:50;6.80;87.50
67529;DHT22;54366;51.980;5.856;2024-02-23T01:47:16;6.80;87.40
67529;DHT22;54366;51.980;5.856;2024-02-23T01:49:44;6.80;87.20
67529;DHT22;54366;51.980;5.856;2024-02-23T01:52:11;6.80;87.00
67529;DHT22;54366;51.980;5.856;2024-02-23T01:54:39;6.80;87.10
67529;DHT22;54366;51.980;5.856;2024-02-23T01:57:06;6.70;86.70
67529;DHT22;54366;51.980;5.856;2024-02-23T01:59:36;6.80;86.90
67529;DHT22;54366;51.980;5.856;2024-02-23T02:02:04;6.80;86.90
67529;DHT22;54366;51.980;5.856;2024-02-23T02:04:31;6.70;86.80
67529;DHT22;54366;51.980;5.856;2024-02-23T02:06:58;6.70;86.70
67529;DHT22;54366;51.980;5.856;2024-02-23T02:09:25;6.70;86.40
67529;DHT22;54366;51.980;5.856;2024-02-23T02:11:52;6.70;86.50
67529;DHT22;54366;51.980;5.856;2024-02-23T02:14:18;6.70;86.40
67529;DHT22;54366;51.980;5.856;2024-02-23T02:16:45;6.70;86.40
67529;DHT22;54366;51.980;5.856;2024-02-23T02:19:12;6.60;86.40
67529;DHT22;54366;51.980;5.856;2024-02-23T02:21:39;6.60;86.50
67529;DHT22;54366;51.980;5.856;2024-02-23T02:24:06;6.60;86.10
67529;DHT22;54366;51.980;5.856;2024-02-23T02:26:34;6.60;86.00
67529;DHT22;54366;51.980;5.856;2024-02-23T02:29:01;6.60;85.90
67529;DHT22;54366;51.980;5.856;2024-02-23T02:31:27;6.60;86.00
67529;DHT22;54366;51.980;5.856;2024-02-23T02:33:53;6.50;86.00
67529;DHT22;54366;51.980;5.856;2024-02-23T02:36:20;6.50;86.10
67529;DHT22;54366;51.980;5.856;2024-02-23T02:38:46;6.50;85.80
67529;DHT22;54366;51.980;5.856;2024-02-23T02:41:12;6.60;86.00
67529;DHT22;54366;51.980;5.856;2024-02-23T02:43:38;6.50;85.90
67529;DHT22;54366;51.980;5.856;2024-02-23T02:46:05;6.50;85.80
67529;DHT22;54366;51.980;5.856;2024-02-23T02:48:31;6.50;85.90
67529;DHT22;54366;51.980;5.856;2024-02-23T02:50:57;6.50;85.70
67529;DHT22;54366;51.980;5.856;2024-02-23T02:53:23;6.50;85.80
67529;DHT22;54366;51.980;5.856;2024-02-23T02:55:50;6.50;85.80
67529;DHT22;54366;51.980;5.856;2024-02-23T02:58:16;6.50;85.80
67529;DHT22;54366;51.980;5.856;2024-02-23T03:00:43;6.50;85.70
67529;DHT22;54366;51.980;5.856;2024-02-23T03:03:09;6.50;85.70
67529;DHT22;54366;51.980;5.856;2024-02-23T03:05:35;6.50;85.60
67529;DHT22;54366;51.980;5.856;2024-02-23T03:08:01;6.40;85.60
67529;DHT22;54366;51.980;5.856;2024-02-23T03:10:28;6.50;85.50
67529;DHT22;54366;51.980;5.856;2024-02-23T03:12:54;6.40;85.60
67529;DHT22;54366;51.980;5.856;2024-02-23T03:15:20;6.50;85.90
67529;DHT22;54366;51.980;5.856;2024-02-23T03:17:47;6.40;85.40
67529;DHT22;54366;51.980;5.856;2024-02-23T03:20:15;6.40;85.20
67529;DHT22;54366;51.980;5.856;2024-02-23T03:22:41;6.40;85.20
67529;DHT22;54366;51.980;5.856;2024-02-23T03:25:08;6.30;85.20
67529;DHT22;54366;51.980;5.856;2024-02-23T03:27:36;6.30;84.80
67529;DHT22;54366;51.980;5.856;2024-02-23T03:30:03;6.30;84.90
67529;DHT22;54366;51.980;5.856;2024-02-23T03:32:31;6.20;85.00
67529;DHT22;54366;51.980;5.856;2024-02-23T03:35:06;6.30;85.20
67529;DHT22;54366;51.980;5.856;2024-02-23T03:37:32;6.30;85.00
67529;DHT22;54366;51.980;5.856;2024-02-23T03:39:59;6.30;84.80
67529;DHT22;54366;51.980;5.856;2024-02-23T03:42:28;6.20;85.00
67529;DHT22;54366;51.980;5.856;2024-02-23T03:44:55;6.20;85.10
67529;DHT22;54366;51.980;5.856;2024-02-23T03:47:21;6.30;85.00
67529;DHT22;54366;51.980;5.856;2024-02-23T03:49:47;6.20;85.00
67529;DHT22;54366;51.980;5.856;2024-02-23T03:52:14;6.20;85.00
67529;DHT22;54366;51.980;5.856;2024-02-23T03:54:40;6.20;85.00
67529;DHT22;54366;51.980;5.856;2024-02-23T03:57:06;6.20;85.00
67529;DHT22;54366;51.980;5.856;2024-02-23T03:59:35;6.20;85.00
67529;DHT22;54366;51.980;5.856;2024-02-23T04:02:01;6.20;84.70
67529;DHT22;54366;51.980;5.856;2024-02-23T04:04:28;6.20;84.90
67529;DHT22;54366;51.980;5.856;2024-02-23T04:06:54;6.10;84.90
67529;DHT22;54366;51.980;5.856;2024-02-23T04:09:21;6.10;85.00
67529;DHT22;54366;51.980;5.856;2024-02-23T04:11:48;6.10;85.10
67529;DHT22;54366;51.980;5.856;2024-02-23T04:14:14;6.10;85.20
67529;DHT22;54366;51.980;5.856;2024-02-23T04:16:41;6.20;85.20
67529;DHT22;54366;51.980;5.856;2024-02-23T04:19:07;6.10;85.00
67529;DHT22;54366;51.980;5.856;2024-02-23T04:21:34;6.20;85.00
67529;DHT22;54366;51.980;5.856;2024-02-23T04:24:00;6.10;84.90
67529;DHT22;54366;51.980;5.856;2024-02-23T04:26:26;6.10;85.00
67529;DHT22;54366;51.980;5.856;2024-02-23T04:28:52;6.10;85.00
67529;DHT22;54366;51.980;5.856;2024-02-23T04:31:19;6.10;85.00
67529;DHT22;54366;51.980;5.856;2024-02-23T04:33:45;6.10;85.10
67529;DHT22;54366;51.980;5.856;2024-02-23T04:36:11;6.10;85.00
67529;DHT22;54366;51.980;5.856;2024-02-23T04:38:38;6.10;85.10
67529;DHT22;54366;51.980;5.856;2024-02-23T04:41:04;6.10;85.30
67529;DHT22;54366;51.980;5.856;2024-02-23T04:43:34;6.10;85.20
67529;DHT22;54366;51.980;5.856;2024-02-23T04:46:00;6.20;85.10
67529;DHT22;54366;51.980;5.856;2024-02-23T04:48:26;6.10;85.20
67529;DHT22;54366;51.980;5.856;2024-02-23T04:50:52;6.20;85.10
67529;DHT22;54366;51.980;5.856;2024-02-23T04:53:19;6.20;85.20
67529;DHT22;54366;51.980;5.856;2024-02-23T04:55:45;6.10;84.90
67529;DHT22;54366;51.980;5.856;2024-02-23T04:58:11;6.10;85.00
67529;DHT22;54366;51.980;5.856;2024-02-23T05:00:38;6.20;84.90
67529;DHT22;54366;51.980;5.856;2024-02-23T05:03:05;6.20;84.90
67529;DHT22;54366;51.980;5.856;2024-02-23T05:05:32;6.10;84.90
67529;DHT22;54366;51.980;5.856;2024-02-23T05:07:59;6.20;85.10
67529;DHT22;54366;51.980;5.856;2024-02-23T05:10:25;6.10;84.90
67529;DHT22;54366;51.980;5.856;2024-02-23T05:12:51;6.20;85.00
67529;DHT22;54366;51.980;5.856;2024-02-23T05:15:18;6.20;85.10
67529;DHT22;54366;51.980;5.856;2024-02-23T05:17:44;6.20;85.20
67529;DHT22;54366;51.980;5.856;2024-02-23T05:20:11;6.30;85.10
67529;DHT22;54366;51.980;5.856;2024-02-23T05:22:39;6.30;84.70
67529;DHT22;54366;51.980;5.856;2024-02-23T05:25:06;6.30;84.70
67529;DHT22;54366;51.980;5.856;2024-02-23T05:27:32;6.30;84.60
67529;DHT22;54366;51.980;5.856;2024-02-23T05:29:59;6.40;84.60
67529;DHT22;54366;51.980;5.856;2024-02-23T05:32:26;6.40;84.60
67529;DHT22;54366;51.980;5.856;2024-02-23T05:34:52;6.40;84.70
67529;DHT22;54366;51.980;5.856;2024-02-23T05:37:20;6.40;84.50
67529;DHT22;54366;51.980;5.856;2024-02-23T05:39:46;6.40;84.50
67529;DHT22;54366;51.980;5.856;2024-02-23T05:42:13;6.40;84.40
67529;DHT22;54366;51.980;5.856;2024-02-23T05:44:39;6.40;84.30
67529;DHT22;54366;51.980;5.856;2024-02-23T05:47:06;6.50;84.40
67529;DHT22;54366;51.980;5.856;2024-02-23T05:49:32;6.50;84.30
67529;DHT22;54366;51.980;5.856;2024-02-23T05:51:58;6.50;84.30
67529;DHT22;54366;51.980;5.856;2024-02-23T05:54:24;6.50;84.30
67529;DHT22;54366;51.980;5.856;2024-02-23T05:56:51;6.50;84.20
67529;DHT22;54366;51.980;5.856;2024-02-23T05:59:17;6.50;84.10
67529;DHT22;54366;51.980;5.856;2024-02-23T06:01:44;6.50;83.90
67529;DHT22;54366;51.980;5.856;2024-02-23T06:04:10;6.50;84.00
67529;DHT22;54366;51.980;5.856;2024-02-23T06:06:36;6.60;84.00
67529;DHT22;54366;51.980;5.856;2024-02-23T06:09:03;6.60;83.70
67529;DHT22;54366;51.980;5.856;2024-02-23T06:11:31;6.60;83.80
67529;DHT22;54366;51.980;5.856;2024-02-23T06:13:57;6.60;83.60
67529;DHT22;54366;51.980;5.856;2024-02-23T06:16:24;6.60;83.40
67529;DHT22;54366;51.980;5.856;2024-02-23T06:18:50;6.60;83.30
67529;DHT22;54366;51.980;5.856;2024-02-23T06:21:17;6.50;83.20
67529;DHT22;54366;51.980;5.856;2024-02-23T06:23:44;6.50;83.00
67529;DHT22;54366;51.980;5.856;2024-02-23T06:26:11;6.60;83.10
67529;DHT22;54366;51.980;5.856;2024-02-23T06:28:38;6.60;82.90
67529;DHT22;54366;51.980;5.856;2024-02-23T06:31:05;6.50;82.70
67529;DHT22;54366;51.980;5.856;2024-02-23T06:33:31;6.60;82.80
67529;DHT22;54366;51.980;5.856;2024-02-23T06:35:58;6.60;82.80
67529;DHT22;54366;51.980;5.856;2024-02-23T06:38:24;6.60;82.80
67529;DHT22;54366;51.980;5.856;2024-02-23T06:40:51;6.60;83.00
67529;DHT22;54366;51.980;5.856;2024-02-23T06:43:18;6.60;83.10
67529;DHT22;54366;51.980;5.856;2024-02-23T06:45:44;6.50;83.10
67529;DHT22;54366;51.980;5.856;2024-02-23T06:48:11;6.60;83.10
67529;DHT22;54366;51.980;5.856;2024-02-23T06:50:37;6.50;83.10
67529;DHT22;54366;51.980;5.856;2024-02-23T06:53:03;6.60;83.00
67529;DHT22;54366;51.980;5.856;2024-02-23T06:55:30;6.60;83.00
67529;DHT22;54366;51.980;5.856;2024-02-23T06:57:56;6.60;82.90
67529;DHT22;54366;51.980;5.856;2024-02-23T07:00:23;6.60;83.00
67529;DHT22;54366;51.980;5.856;2024-02-23T07:02:49;6.60;82.80
67529;DHT22;54366;51.980;5.856;2024-02-23T07:05:15;6.70;82.70
67529;DHT22;54366;51.980;5.856;2024-02-23T07:07:41;6.70;82.80
67529;DHT22;54366;51.980;5.856;2024-02-23T07:10:09;6.70;82.80
67529;DHT22;54366;51.980;5.856;2024-02-23T07:12:36;6.70;82.10
67529;DHT22;54366;51.980;5.856;2024-02-23T07:15:03;6.70;82.00
67529;DHT22;54366;51.980;5.856;2024-02-23T07:17:29;6.70;82.10
67529;DHT22;54366;51.980;5.856;2024-02-23T07:19:55;6.80;82.00
67529;DHT22;54366;51.980;5.856;2024-02-23T07:22:29;6.80;81.70
67529;DHT22;54366;51.980;5.856;2024-02-23T07:24:55;6.80;81.50
67529;DHT22;54366;51.980;5.856;2024-02-23T07:27:21;6.80;81.40
67529;DHT22;54366;51.980;5.856;2024-02-23T07:29:48;6.90;81.30
67529;DHT22;54366;51.980;5.856;2024-02-23T07:32:14;6.80;81.20
67529;DHT22;54366;51.980;5.856;2024-02-23T07:34:40;6.90;81.20
67529;DHT22;54366;51.980;5.856;2024-02-23T07:37:07;6.90;81.00
67529;DHT22;54366;51.980;5.856;2024-02-23T07:39:33;6.90;81.00
67529;DHT22;54366;51.980;5.856;2024-02-23T07:41:59;7.00;80.90
67529;DHT22;54366;51.980;5.856;2024-02-23T07:44:26;6.90;80.50
67529;DHT22;54366;51.980;5.856;2024-02-23T07:46:52;6.90;81.20
67529;DHT22;54366;51.980;5.856;2024-02-23T07:49:20;7.00;80.40
67529;DHT22;54366;51.980;5.856;2024-02-23T07:51:48;7.00;80.40
67529;DHT22;54366;51.980;5.856;2024-02-23T07:54:14;7.10;79.90
67529;DHT22;54366;51.980;5.856;2024-02-23T07:56:40;7.00;79.50
67529;DHT22;54366;51.980;5.856;2024-02-23T07:59:07;7.00;79.30
67529;DHT22;54366;51.980;5.856;2024-02-23T08:01:33;7.00;79.50
67529;DHT22;54366;51.980;5.856;2024-02-23T08:04:00;7.10;78.70
67529;DHT22;54366;51.980;5.856;2024-02-23T08:06:26;7.10;78.70
67529;DHT22;54366;51.980;5.856;2024-02-23T08:08:53;7.10;78.80
67529;DHT22;54366;51.980;5.856;2024-02-23T08:11:21;7.20;78.90
67529;DHT22;54366;51.980;5.856;2024-02-23T08:13:47;7.30;78.70
67529;DHT22;54366;51.980;5.856;2024-02-23T08:16:16;7.30;78.20
67529;DHT22;54366;51.980;5.856;2024-02-23T08:18:42;7.30;78.40
67529;DHT22;54366;51.980;5.856;2024-02-23T08:21:10;7.40;78.80
67529;DHT22;54366;51.980;5.856;2024-02-23T08:23:37;7.40;78.30
67529;DHT22;54366;51.980;5.856;2024-02-23T08:26:03;7.40;78.10
67529;DHT22;54366;51.980;5.856;2024-02-23T08:28:30;7.40;78.10
67529;DHT22;54366;51.980;5.856;2024-02-23T08:30:56;7.40;77.50
67529;DHT22;54366;51.980;5.856;2024-02-23T08:33:22;7.40;77.60
67529;DHT22;54366;51.980;5.856;2024-02-23T08:35:49;7.40;77.50
67529;DHT22;54366;51.980;5.856;2024-02-23T08:38:15;7.40;77.60
67529;DHT22;54366;51.980;5.856;2024-02-23T08:40:41;7.40;77.00
67529;DHT22;54366;51.980;5.856;2024-02-23T08:43:08;7.40;76.80
67529;DHT22;54366;51.980;5.856;2024-02-23T08:45:34;7.50;77.30
67529;DHT22;54366;51.980;5.856;2024-02-23T08:48:03;7.40;77.10
67529;DHT22;54366;51.980;5.856;2024-02-23T08:50:30;7.50;77.30
67529;DHT22;54366;51.980;5.856;2024-02-23T08:52:56;7.60;77.80
67529;DHT22;54366;51.980;5.856;2024-02-23T08:55:22;7.70;77.50
67529;DHT22;54366;51.980;5.856;2024-02-23T08:57:50;7.70;77.30
67529;DHT22;54366;51.980;5.856;2024-02-23T09:00:16;7.80;77.00
67529;DHT22;54366;51.980;5.856;2024-02-23T09:02:43;7.80;76.80
67529;DHT22;54366;51.980;5.856;2024-02-23T09:05:09;7.80;76.90
67529;DHT22;54366;51.980;5.856;2024-02-23T09:07:36;7.80;76.90
67529;DHT22;54366;51.980;5.856;2024-02-23T09:10:02;7.90;76.40
67529;DHT22;54366;51.980;5.856;2024-02-23T09:12:31;7.80;76.60
67529;DHT22;54366;51.980;5.856;2024-02-23T09:14:57;7.80;76.40
67529;DHT22;54366;51.980;5.856;2024-02-23T09:17:23;7.80;77.10
67529;DHT22;54366;51.980;5.856;2024-02-23T09:19:51;7.80;76.00
67529;DHT22;54366;51.980;5.856;2024-02-23T09:22:21;7.80;75.60
67529;DHT22;54366;51.980;5.856;2024-02-23T09:24:48;7.80;75.90
67529;DHT22;54366;51.980;5.856;2024-02-23T09:27:15;7.80;76.20
67529;DHT22;54366;51.980;5.856;2024-02-23T09:29:41;7.80;75.90
67529;DHT22;54366;51.980;5.856;2024-02-23T09:32:08;7.80;75.90
67529;DHT22;54366;51.980;5.856;2024-02-23T09:34:34;7.90;75.70
67529;DHT22;54366;51.980;5.856;2024-02-23T09:37:01;7.80;75.60
67529;DHT22;54366;51.980;5.856;2024-02-23T09:39:27;7.90;75.90
67529;DHT22;54366;51.980;5.856;2024-02-23T09:41:56;7.80;76.00
67529;DHT22;54366;51.980;5.856;2024-02-23T09:44:33;7.90;76.50
67529;DHT22;54366;51.980;5.856;2024-02-23T09:47:03;7.90;76.80
67529;DHT22;54366;51.980;5.856;2024-02-23T09:49:39;7.90;76.30
67529;DHT22;54366;51.980;5.856;2024-02-23T09:52:07;7.90;76.00
67529;DHT22;54366;51.980;5.856;2024-02-23T09:54:37;7.90;76.70
67529;DHT22;54366;51.980;5.856;2024-02-23T09:57:07;8.00;76.70
67529;DHT22;54366;51.980;5.856;2024-02-23T09:59:37;8.00;76.90
67529;DHT22;54366;51.980;5.856;2024-02-23T10:02:15;8.10;76.20
67529;DHT22;54366;51.980;5.856;2024-02-23T10:04:43;8.10;76.40
67529;DHT22;54366;51.980;5.856;2024-02-23T10:07:10;8.20;76.70
67529;DHT22;54366;51.980;5.856;2024-02-23T10:09:36;8.20;76.70
67529;DHT22;54366;51.980;5.856;2024-02-23T10:12:03;8.30;76.60
67529;DHT22;54366;51.980;5.856;2024-02-23T10:14:29;8.30;76.50
67529;DHT22;54366;51.980;5.856;2024-02-23T10:16:56;8.30;76.70
67529;DHT22;54366;51.980;5.856;2024-02-23T10:19:22;8.20;76.90
67529;DHT22;54366;51.980;5.856;2024-02-23T10:21:55;8.20;77.40
67529;DHT22;54366;51.980;5.856;2024-02-23T10:24:23;8.10;77.40
67529;DHT22;54366;51.980;5.856;2024-02-23T10:26:50;8.10;77.80
67529;DHT22;54366;51.980;5.856;2024-02-23T10:29:17;8.10;78.40
67529;DHT22;54366;51.980;5.856;2024-02-23T10:31:44;8.10;78.60
67529;DHT22;54366;51.980;5.856;2024-02-23T10:34:14;8.10;78.90
67529;DHT22;54366;51.980;5.856;2024-02-23T10:36:42;8.00;79.00
67529;DHT22;54366;51.980;5.856;2024-02-23T10:39:09;8.00;79.20
67529;DHT22;54366;51.980;5.856;2024-02-23T10:41:36;8.00;79.60
67529;DHT22;54366;51.980;5.856;2024-02-23T10:44:05;7.90;79.80
67529;DHT22;54366;51.980;5.856;2024-02-23T10:46:33;7.90;80.60
67529;DHT22;54366;51.980;5.856;2024-02-23T10:49:01;7.90;80.80
67529;DHT22;54366;51.980;5.856;2024-02-23T10:51:27;8.00;81.00
67529;DHT22;54366;51.980;5.856;2024-02-23T10:53:54;8.00;80.60
67529;DHT22;54366;51.980;5.856;2024-02-23T10:56:21;8.00;80.30
67529;DHT22;54366;51.980;5.856;2024-02-23T10:58:48;8.10;80.30
67529;DHT22;54366;51.980;5.856;2024-02-23T11:01:15;8.10;79.60
67529;DHT22;54366;51.980;5.856;2024-02-23T11:03:44;8.20;79.60
67529;DHT22;54366;51.980;5.856;2024-02-23T11:06:12;8.20;78.90
67529;DHT22;54366;51.980;5.856;2024-02-23T11:08:39;8.20;78.20
67529;DHT22;54366;51.980;5.856;2024-02-23T11:11:10;8.20;78.50
67529;DHT22;54366;51.980;5.856;2024-02-23T11:13:40;8.20;78.70
67529;DHT22;54366;51.980;5.856;2024-02-23T11:16:08;8.20;78.30
67529;DHT22;54366;51.980;5.856;2024-02-23T11:18:39;8.20;78.00
67529;DHT22;54366;51.980;5.856;2024-02-23T11:21:09;8.20;78.30
67529;DHT22;54366;51.980;5.856;2024-02-23T11:23:48;8.20;78.00
67529;DHT22;54366;51.980;5.856;2024-02-23T11:26:17;8.20;78.00
67529;DHT22;54366;51.980;5.856;2024-02-23T11:28:51;8.20;78.00
67529;DHT22;54366;51.980;5.856;2024-02-23T11:31:22;8.20;77.80
67529;DHT22;54366;51.980;5.856;2024-02-23T11:33:53;8.20;78.00
67529;DHT22;54366;51.980;5.856;2024-02-23T11:36:38;8.20;78.30
67529;DHT22;54366;51.980;5.856;2024-02-23T11:39:04;8.30;78.40
67529;DHT22;54366;51.980;5.856;2024-02-23T11:41:31;8.30;78.40
67529;DHT22;54366;51.980;5.856;2024-02-23T11:43:58;8.30;78.30
67529;DHT22;54366;51.980;5.856;2024-02-23T11:46:24;8.30;78.10
67529;DHT22;54366;51.980;5.856;2024-02-23T11:48:50;8.30;78.10
67529;DHT22;54366;51.980;5.856;2024-02-23T11:51:20;8.40;78.40
67529;DHT22;54366;51.980;5.856;2024-02-23T11:53:47;8.40;78.50
67529;DHT22;54366;51.980;5.856;2024-02-23T11:56:14;8.50;78.60
67529;DHT22;54366;51.980;5.856;2024-02-23T11:58:41;8.50;78.20
67529;DHT22;54366;51.980;5.856;2024-02-23T12:01:08;8.50;77.70
67529;DHT22;54366;51.980;5.856;2024-02-23T12:03:34;8.50;77.60
67529;DHT22;54366;51.980;5.856;2024-02-23T12:06:02;8.50;77.90
67529;DHT22;54366;51.980;5.856;2024-02-23T12:08:30;8.50;77.90
67529;DHT22;54366;51.980;5.856;2024-02-23T12:11:10;8.60;78.00
67529;DHT22;54366;51.980;5.856;2024-02-23T12:13:38;8.60;77.90
67529;DHT22;54366;51.980;5.856;2024-02-23T12:16:06;8.50;77.80
67529;DHT22;54366;51.980;5.856;2024-02-23T12:18:33;8.60;77.90
67529;DHT22;54366;51.980;5.856;2024-02-23T12:21:01;8.50;77.80
67529;DHT22;54366;51.980;5.856;2024-02-23T12:23:44;8.50;77.40
67529;DHT22;54366;51.980;5.856;2024-02-23T12:26:13;8.50;77.60
67529;DHT22;54366;51.980;5.856;2024-02-23T12:28:40;8.50;78.20
67529;DHT22;54366;51.980;5.856;2024-02-23T12:31:07;8.50;77.80
67529;DHT22;54366;51.980;5.856;2024-02-23T12:33:36;8.50;77.90
67529;DHT22;54366;51.980;5.856;2024-02-23T12:36:04;8.60;78.00
67529;DHT22;54366;51.980;5.856;2024-02-23T12:38:31;8.60;77.70
67529;DHT22;54366;51.980;5.856;2024-02-23T12:40:58;8.60;77.50
67529;DHT22;54366;51.980;5.856;2024-02-23T12:43:25;8.60;77.80
67529;DHT22;54366;51.980;5.856;2024-02-23T12:45:55;8.70;77.80
67529;DHT22;54366;51.980;5.856;2024-02-23T12:48:22;8.70;77.70
67529;DHT22;54366;51.980;5.856;2024-02-23T12:50:49;8.70;77.30
67529;DHT22;54366;51.980;5.856;2024-02-23T12:53:38;8.80;77.30
67529;DHT22;54366;51.980;5.856;2024-02-23T12:56:06;8.80;77.10
67529;DHT22;54366;51.980;5.856;2024-02-23T12:58:41;8.90;77.10
67529;DHT22;54366;51.980;5.856;2024-02-23T13:01:08;8.90;77.20
67529;DHT22;54366;51.980;5.856;2024-02-23T13:03:36;8.90;77.20
67529;DHT22;54366;51.980;5.856;2024-02-23T13:06:03;9.00;76.80
67529;DHT22;54366;51.980;5.856;2024-02-23T13:08:29;9.00;76.60
67529;DHT22;54366;51.980;5.856;2024-02-23T13:10:56;9.00;76.70
67529;DHT22;54366;51.980;5.856;2024-02-23T13:13:24;9.10;76.30
67529;DHT22;54366;51.980;5.856;2024-02-23T13:15:51;9.10;76.50
67529;DHT22;54366;51.980;5.856;2024-02-23T13:18:18;9.10;76.40
67529;DHT22;54366;51.980;5.856;2024-02-23T13:20:45;9.10;76.70
67529;DHT22;54366;51.980;5.856;2024-02-23T13:23:12;9.20;76.50
67529;DHT22;54366;51.980;5.856;2024-02-23T13:25:39;9.30;76.20
67529;DHT22;54366;51.980;5.856;2024-02-23T13:28:07;9.40;76.10
67529;DHT22;54366;51.980;5.856;2024-02-23T13:30:34;9.50;76.20
67529;DHT22;54366;51.980;5.856;2024-02-23T13:33:00;9.60;75.70
67529;DHT22;54366;51.980;5.856;2024-02-23T13:35:27;9.70;74.50
67529;DHT22;54366;51.980;5.856;2024-02-23T13:37:54;9.80;74.70
67529;DHT22;54366;51.980;5.856;2024-02-23T13:40:20;9.90;74.30
67529;DHT22;54366;51.980;5.856;2024-02-23T13:42:47;9.90;74.40
67529;DHT22;54366;51.980;5.856;2024-02-23T13:45:16;10.00;74.20
67529;DHT22;54366;51.980;5.856;2024-02-23T13:47:57;10.00;73.80
67529;DHT22;54366;51.980;5.856;2024-02-23T13:50:24;10.00;73.50
67529;DHT22;54366;51.980;5.856;2024-02-23T13:52:50;10.10;73.80
67529;DHT22;54366;51.980;5.856;2024-02-23T13:55:17;10.10;73.90
67529;DHT22;54366;51.980;5.856;2024-02-23T13:57:43;10.10;73.60
67529;DHT22;54366;51.980;5.856;2024-02-23T14:00:10;10.10;73.60
67529;DHT22;54366;51.980;5.856;2024-02-23T14:02:39;10.10;73.50
67529;DHT22;54366;51.980;5.856;2024-02-23T14:05:08;10.10;74.00
67529;DHT22;54366;51.980;5.856;2024-02-23T14:07:34;10.10;74.30
67529;DHT22;54366;51.980;5.856;2024-02-23T14:10:01;10.20;74.10
67529;DHT22;54366;51.980;5.856;2024-02-23T14:12:29;10.20;73.80
67529;DHT22;54366;51.980;5.856;2024-02-23T14:14:55;10.20;73.30
67529;DHT22;54366;51.980;5.856;2024-02-23T14:17:22;10.20;73.20
67529;DHT22;54366;51.980;5.856;2024-02-23T14:19:48;10.20;73.50
67529;DHT22;54366;51.980;5.856;2024-02-23T14:22:16;10.20;73.60
67529;DHT22;54366;51.980;5.856;2024-02-23T14:24:43;10.30;73.50
67529;DHT22;54366;51.980;5.856;2024-02-23T14:27:10;10.30;73.60
67529;DHT22;54366;51.980;5.856;2024-02-23T14:29:36;10.30;73.60
67529;DHT22;54366;51.980;5.856;2024-02-23T14:32:04;10.20;73.40
67529;DHT22;54366;51.980;5.856;2024-02-23T14:34:31;10.20;73.60
67529;DHT22;54366;51.980;5.856;2024-02-23T14:36:59;10.20;73.40
67529;DHT22;54366;51.980;5.856;2024-02-23T14:39:26;10.20;73.00
67529;DHT22;54366;51.980;5.856;2024-02-23T14:41:52;10.10;73.10
67529;DHT22;54366;51.980;5.856;2024-02-23T14:44:18;10.10;72.90
67529;DHT22;54366;51.980;5.856;2024-02-23T14:46:44;10.00;72.60
67529;DHT22;54366;51.980;5.856;2024-02-23T14:49:11;9.90;72.90
67529;DHT22;54366;51.980;5.856;2024-02-23T14:51:37;9.80;73.20
67529;DHT22;54366;51.980;5.856;2024-02-23T14:54:04;9.70;73.60
67529;DHT22;54366;51.980;5.856;2024-02-23T14:56:31;9.70;74.20
67529;DHT22;54366;51.980;5.856;2024-02-23T14:58:57;9.60;74.30
67529;DHT22;54366;51.980;5.856;2024-02-23T15:01:23;9.60;75.10
67529;DHT22;54366;51.980;5.856;2024-02-23T15:03:50;9.50;75.80
67529;DHT22;54366;51.980;5.856;2024-02-23T15:06:16;9.50;76.40
67529;DHT22;54366;51.980;5.856;2024-02-23T15:08:44;9.50;76.70
67529;DHT22;54366;51.980;5.856;2024-02-23T15:11:10;9.40;77.50
67529;DHT22;54366;51.980;5.856;2024-02-23T15:13:36;9.40;77.10
67529;DHT22;54366;51.980;5.856;2024-02-23T15:16:03;9.40;77.40
67529;DHT22;54366;51.980;5.856;2024-02-23T15:18:30;9.40;77.50
67529;DHT22;54366;51.980;5.856;2024-02-23T15:20:56;9.40;77.50
67529;DHT22;54366;51.980;5.856;2024-02-23T15:23:22;9.30;77.40
67529;DHT22;54366;51.980;5.856;2024-02-23T15:25:50;9.30;77.40
67529;DHT22;54366;51.980;5.856;2024-02-23T15:28:16;9.30;77.40
67529;DHT22;54366;51.980;5.856;2024-02-23T15:30:49;9.30;77.50
67529;DHT22;54366;51.980;5.856;2024-02-23T15:33:16;9.30;77.60
67529;DHT22;54366;51.980;5.856;2024-02-23T15:35:42;9.20;77.80
67529;DHT22;54366;51.980;5.856;2024-02-23T15:38:08;9.30;78.00
67529;DHT22;54366;51.980;5.856;2024-02-23T15:40:35;9.20;78.60
67529;DHT22;54366;51.980;5.856;2024-02-23T15:43:01;9.20;78.30
67529;DHT22;54366;51.980;5.856;2024-02-23T15:45:28;9.30;78.70